Latest Weather Observations for East Sale Airport

IDV60801

Issued at 12:22 pm EST Wednesday 21 April 2021 (issued every 10 minutes, with the page automatically refreshed every 10 minutes)

About weather observations | Map of weather stations | Latest weather observations for VIC | Other Formats
Station Details ID: 085314 Name: EAST SALE AIRPORT Lat: -38.10 Lon: 147.14 Height: 5.3 m
Data from the previous 72 hours. | See also: Recent months at East Sale Airport
Date/Time
EST
Temp
°C
App
Temp
°C
Dew
Point
°C
Rel
Hum
%
Delta-T
°C
Wind Press
QNH
hPa
Press
MSL
hPa
Rain since
9am
mm
Dir  Spd
km/h
Gust
km/h
Spd
kts
Gust
kts
21/12:00pm 14.1 9.7 4.9 54 4.3 W 17 24 9 13 1016.7 - 0.0
21/11:30am 13.7 8.9 5.6 58 3.8 W 20 28 11 15 1017.0 - 0.0
21/11:00am 12.9 8.1 5.8 62 3.3 WSW 20 30 11 16 1017.4 - 0.0
21/10:30am 12.2 7.1 5.8 65 3.0 W 22 32 12 17 1017.6 - 0.0
21/10:00am 11.0 5.5 5.7 70 2.4 W 24 32 13 17 1017.5 - 0.0
21/09:30am 10.5 5.9 6.3 75 2.0 WNW 20 30 11 16 1017.5 - 0.0
21/09:00am 9.6 5.1 6.0 78 1.7 WNW 19 24 10 13 1017.6 - 4.6
21/08:30am 8.4 3.5 5.2 80 1.4 WNW 20 26 11 14 1017.3 - 4.6
21/08:00am 8.4 3.6 5.5 82 1.3 WNW 20 26 11 14 1017.0 - 4.6
21/07:30am 7.8 3.1 5.3 84 1.1 W 19 24 10 13 1016.6 - 4.6
21/07:00am 7.1 2.8 5.1 87 0.9 WNW 17 24 9 13 1016.2 - 4.6
21/06:30am 7.0 2.6 4.8 86 1.0 W 17 24 9 13 1016.0 - 4.6
21/06:00am 7.2 2.9 5.2 87 0.9 WNW 17 26 9 14 1015.9 - 4.6
21/05:30am 7.0 2.3 5.2 88 0.8 W 19 24 10 13 1015.7 - 4.6
21/05:00am 7.0 2.7 5.2 88 0.8 W 17 22 9 12 1015.7 - 4.6
21/04:30am 7.3 2.7 5.4 88 0.8 W 19 28 10 15 1015.2 - 4.6
21/04:00am 7.3 2.7 5.6 89 0.8 WNW 19 26 10 14 1014.9 - 4.6
21/03:30am 7.5 2.9 5.8 89 0.8 WNW 19 24 10 13 1014.8 - 4.4
21/03:00am 7.3 3.5 5.6 89 0.8 W 15 22 8 12 1014.8 - 4.4
21/02:30am 7.6 3.0 5.6 87 0.9 WSW 19 26 10 14 1014.9 - 4.0
21/02:00am 7.5 3.2 5.3 86 1.0 WNW 17 22 9 12 1014.5 - 4.0
21/01:30am 7.1 2.8 5.3 88 0.8 WNW 17 22 9 12 1014.2 - 4.0
21/01:00am 7.4 3.1 5.4 87 0.9 WNW 17 24 9 13 1014.1 - 4.0
21/12:30am 8.0 3.8 5.6 85 1.1 WNW 17 24 9 13 1014.1 - 4.0
21/12:00am 8.5 4.0 6.1 85 1.1 WNW 19 24 10 13 1014.0 - 4.0
 
Date/Time
EST
Temp
°C
App
Temp
°C
Dew
Point
°C
Rel
Hum
%
Delta-T
°C
Wind Press
QNH
hPa
Press
MSL
hPa
Rain since
9am
mm
Dir  Spd
km/h
Gust
km/h
Spd
kts
Gust
kts
20/11:30pm 8.6 4.1 6.2 85 1.1 WNW 19 24 10 13 1013.8 - 4.0
20/11:00pm 9.1 5.1 6.7 85 1.1 WNW 17 24 9 13 1013.8 - 4.0
20/10:30pm 9.5 4.7 7.3 86 1.0 WNW 22 30 12 16 1013.8 - 4.0
20/10:00pm 9.9 5.6 7.7 86 1.1 WNW 20 28 11 15 1013.8 - 4.0
20/09:30pm 10.1 5.8 8.0 87 1.0 WNW 20 28 11 15 1013.5 - 4.0
20/09:00pm 10.1 6.5 8.2 88 0.9 WNW 17 24 9 13 1013.1 - 4.0
20/08:30pm 10.1 6.2 8.5 90 0.8 WNW 19 28 10 15 1013.0 - 4.0
20/08:00pm 10.1 6.2 8.5 90 0.8 WNW 19 26 10 14 1012.7 - 4.0
20/07:30pm 10.5 6.5 8.3 86 1.1 W 19 30 10 16 1012.4 - 4.0
20/07:00pm 10.3 6.9 9.1 92 0.6 W 17 22 9 12 1012.1 - 3.8
20/06:37pm 10.4 7.4 9.3 93 0.5 W 15 22 8 12 1011.8 - 3.8
20/06:30pm 10.4 7.0 9.3 93 0.5 W 17 26 9 14 1011.7 - 3.8
20/06:17pm 10.6 7.3 9.4 92 0.6 SW 17 24 9 13 1011.4 - 3.0
20/06:00pm 10.8 7.0 9.2 90 0.8 W 19 26 10 14 1010.9 - 1.4
20/05:30pm 11.0 7.6 9.3 89 0.8 W 17 20 9 11 1010.3 - 1.0
20/05:00pm 11.3 7.3 9.0 86 1.1 WNW 20 35 11 19 1009.8 - 0.8
20/04:30pm 11.5 8.2 9.4 87 1.1 WNW 17 26 9 14 1009.3 - 0.6
20/04:00pm 11.8 7.5 9.5 86 1.2 W 22 32 12 17 1009.2 - 0.4
20/03:30pm 12.4 8.9 10.8 90 0.8 WSW 20 30 11 16 1008.9 - 0.2
20/03:00pm 12.8 8.4 10.3 85 1.3 WSW 24 32 13 17 1008.8 - 0.2
20/02:30pm 13.2 8.0 10.2 82 1.6 WSW 28 48 15 26 1008.5 - 0.0
20/02:23pm 13.9 8.4 9.3 74 2.3 W 28 48 15 26 1008.5 - 0.0
20/02:00pm 15.0 8.5 8.9 67 3.1 WSW 33 44 18 24 1008.1 - 0.0
20/01:30pm 17.3 10.5 7.9 54 4.8 W 33 59 18 32 1007.8 - 0.0
20/01:24pm 17.5 9.8 7.0 50 5.2 W 37 59 20 32 1007.7 - 0.0
20/01:23pm 17.6 9.8 6.8 49 5.4 W 37 59 20 32 1007.6 - 0.0
20/01:07pm 18.7 12.0 5.5 42 6.4 WNW 30 52 16 28 1007.5 - 0.0
20/01:00pm 18.9 11.7 5.7 42 6.5 WNW 33 46 18 25 1007.5 - 0.0
20/12:30pm 18.6 12.2 6.8 46 5.9 NW 30 43 16 23 1007.8 - 0.0
20/12:07pm 19.4 12.1 4.7 38 7.1 WNW 32 50 17 27 1008.1 - 0.0
20/12:00pm 19.4 13.0 5.1 39 7.0 WNW 28 43 15 23 1008.1 - 0.0
20/11:30am 20.0 13.7 3.7 34 7.7 WNW 26 33 14 18 1008.4 - 0.0
20/11:17am 19.8 13.4 5.1 38 7.2 WNW 28 46 15 25 1008.7 - 0.0
20/11:00am 20.4 12.3 5.2 37 7.5 NW 37 46 20 25 1008.6 - 0.0
20/10:38am 20.1 12.4 5.4 38 7.2 NW 35 54 19 29 1008.6 - 0.0
20/10:30am 20.6 13.9 7.2 42 6.8 NW 32 44 17 24 1008.8 - 0.0
20/10:23am 20.1 14.0 6.5 41 6.8 NW 28 41 15 22 1008.9 - 0.0
20/10:00am 19.0 15.5 7.4 47 5.9 NW 15 20 8 11 1009.3 - 0.0
20/09:30am 17.8 15.1 7.2 50 5.3 NNW 11 13 6 7 1009.6 - 0.0
20/09:00am 16.0 13.7 7.5 57 4.2 NNW 9 13 5 7 1010.1 - 0.0
20/08:30am 13.6 10.7 6.5 62 3.4 NNW 11 15 6 8 1010.3 - 0.0
20/08:00am 14.3 10.9 5.9 57 4.0 NW 13 15 7 8 1010.1 - 0.0
20/07:30am 14.7 10.6 6.3 57 4.0 NNW 17 20 9 11 1009.9 - 0.0
20/07:27am 14.6 10.5 6.4 58 4.0 NNW 17 20 9 11 1009.8 - 0.0
20/07:00am 9.6 6.7 4.4 70 2.3 N 9 9 5 5 1009.9 - 0.0
20/06:30am 11.7 7.7 5.1 64 3.0 NNW 15 20 8 11 1010.0 - 0.0
20/06:00am 10.3 6.3 5.1 70 2.4 N 15 17 8 9 1010.0 - 0.0
20/05:30am 11.0 7.0 5.1 67 2.7 N 15 17 8 9 1010.1 - 0.0
20/05:00am 10.8 7.5 4.7 66 2.8 NNW 11 15 6 8 1010.1 - 0.0
20/04:30am 10.4 7.2 5.0 69 2.4 N 11 13 6 7 1010.2 - 0.0
20/04:00am 12.0 8.0 4.7 61 3.3 N 15 20 8 11 1010.2 - 0.0
20/03:30am 14.2 9.3 5.0 54 4.3 N 20 28 11 15 1010.3 - 0.0
20/03:00am 14.2 9.1 5.8 57 4.0 N 22 30 12 16 1010.7 - 0.0
20/02:30am 13.6 9.2 6.7 63 3.3 N 19 22 10 12 1011.2 - 0.0
20/02:00am 13.0 10.9 6.6 65 3.1 N 7 9 4 5 1011.6 - 0.0
20/01:30am 12.8 11.8 7.3 69 2.7 SSE 2 7 1 4 1012.0 - 0.0
20/01:00am 14.1 13.4 6.9 62 3.5 CALM 0 0 0 0 1012.2 - 0.0
20/12:30am 14.1 13.1 7.2 63 3.4 WSW 2 6 1 3 1012.4 - 0.0
20/12:00am 14.9 13.1 7.0 59 3.9 NW 6 7 3 4 1012.8 - 0.0
 
Date/Time
EST
Temp
°C
App
Temp
°C
Dew
Point
°C
Rel
Hum
%
Delta-T
°C
Wind Press
QNH
hPa
Press
MSL
hPa
Rain since
9am
mm
Dir  Spd
km/h
Gust
km/h
Spd
kts
Gust
kts
19/11:30pm 15.0 11.9 7.1 59 3.9 NW 13 15 7 8 1013.0 - 0.0
19/11:00pm 13.4 12.4 7.2 66 3.0 WSW 2 7 1 4 1013.2 - 0.0
19/10:30pm 14.5 12.5 6.3 58 3.9 NNW 6 7 3 4 1013.4 - 0.0
19/10:00pm 14.6 11.3 6.4 58 4.0 N 13 15 7 8 1013.5 - 0.0
19/09:30pm 14.5 11.1 6.1 57 4.0 NNW 13 15 7 8 1013.6 - 0.0
19/09:00pm 15.2 11.1 6.0 54 4.4 NNW 17 22 9 12 1013.6 - 0.0
19/08:30pm 15.9 12.1 5.8 51 4.9 NNW 15 20 8 11 1013.6 - 0.0
19/08:00pm 16.0 12.2 5.9 51 4.9 N 15 19 8 10 1013.7 - 0.0
19/07:30pm 15.8 11.1 6.0 52 4.7 NNW 20 24 11 13 1014.0 - 0.0
19/07:00pm 15.5 11.6 7.0 57 4.2 NNW 17 22 9 12 1014.0 - 0.0
19/06:30pm 15.6 11.7 6.9 56 4.3 NW 17 20 9 11 1013.9 - 0.0
19/06:00pm 17.3 12.9 7.4 52 5.0 WNW 20 30 11 16 1013.6 - 0.0
19/05:30pm 18.1 13.8 7.2 49 5.5 WNW 19 26 10 14 1013.7 - 0.0
19/05:00pm 18.0 13.9 8.0 52 5.1 W 19 26 10 14 1013.6 - 0.0
19/04:30pm 18.2 13.9 7.9 51 5.3 W 20 32 11 17 1013.5 - 0.0
19/04:00pm 18.6 13.9 7.7 49 5.5 W 22 33 12 18 1013.5 - 0.0
19/03:30pm 18.7 13.3 8.1 50 5.4 W 26 32 14 17 1013.5 - 0.0
19/03:00pm 19.6 14.6 8.0 47 6.0 W 24 35 13 19 1013.6 - 0.0
19/02:30pm 19.9 15.4 8.6 48 5.9 W 22 32 12 17 1013.6 - 0.0
19/02:00pm 19.6 14.5 7.7 46 6.1 WNW 24 32 13 17 1013.8 - 0.0
19/01:30pm 20.0 16.0 9.0 49 5.8 WNW 20 28 11 15 1014.1 - 0.0
19/01:00pm 19.5 15.2 9.4 52 5.3 WNW 22 30 12 16 1014.7 - 0.0
19/12:30pm 18.7 14.6 10.0 57 4.6 W 22 30 12 16 1015.2 - 0.0
19/12:00pm 17.9 13.7 9.8 59 4.3 WNW 22 30 12 16 1016.0 - 0.0
19/11:30am 17.4 13.4 10.5 64 3.7 WNW 22 30 12 16 1016.4 - 0.0
19/11:00am 17.3 14.6 11.6 69 3.1 WNW 17 24 9 13 1016.7 - 0.0
19/10:30am 15.9 13.2 11.7 76 2.3 W 17 22 9 12 1017.2 - 0.0
19/10:00am 15.3 13.1 10.9 75 2.3 WNW 13 17 7 9 1017.3 - 0.0
19/09:30am 14.1 11.8 10.5 79 1.9 WNW 13 19 7 10 1017.7 - 0.0
19/09:00am 12.5 10.8 9.7 83 1.4 WNW 9 11 5 6 1017.7 - 0.0
19/08:30am 10.9 9.5 9.5 91 0.7 W 7 9 4 5 1017.6 - 0.0
19/08:00am 8.9 6.8 8.1 95 0.4 NNW 9 9 5 5 1017.5 - 0.0
19/07:30am 7.5 5.5 7.1 97 0.2 NW 7 11 4 6 1017.2 - 0.0
19/07:00am 6.2 3.5 5.8 97 0.2 NW 9 9 5 5 1017.2 - 0.0
19/06:30am 5.5 3.2 4.9 96 0.3 W 6 6 3 3 1017.2 - 0.0
19/06:00am 5.6 3.1 5.0 96 0.3 NNW 7 9 4 5 1017.0 - 0.0
19/05:30am 5.3 2.9 4.4 94 0.4 WSW 6 7 3 4 1017.1 - 0.0
19/05:00am 6.1 3.7 5.2 94 0.4 NW 7 9 4 5 1016.7 - 0.0
19/04:30am 6.9 3.9 6.2 95 0.3 NNW 11 13 6 7 1016.6 - 0.0
19/04:00am 6.7 5.7 5.5 92 0.5 CALM 0 6 0 3 1016.8 - 0.0
19/03:30am 8.1 5.3 6.9 92 0.6 WNW 11 13 6 7 1017.0 - 0.0
19/03:00am 8.1 5.4 7.2 94 0.4 NNW 11 11 6 6 1017.0 - 0.0
19/02:30am 8.4 5.7 7.3 93 0.5 NW 11 13 6 7 1017.4 - 0.0
19/02:00am 8.6 6.4 7.8 95 0.4 NNW 9 11 5 6 1017.8 - 0.0
19/01:30am 8.4 6.2 7.8 96 0.3 NW 9 11 5 6 1018.1 - 0.0
19/01:00am 9.6 7.7 9.0 96 0.3 NW 9 11 5 6 1018.2 - 0.0
19/12:30am 10.0 8.2 9.4 96 0.3 NW 9 13 5 7 1018.3 - 0.0
19/12:00am 9.8 7.9 9.2 96 0.3 NW 9 11 5 6 1018.4 - 0.0
 
Date/Time
EST
Temp
°C
App
Temp
°C
Dew
Point
°C
Rel
Hum
%
Delta-T
°C
Wind Press
QNH
hPa
Press
MSL
hPa
Rain since
9am
mm
Dir  Spd
km/h
Gust
km/h
Spd
kts
Gust
kts
18/11:30pm 10.0 7.8 9.2 95 0.4 NNW 11 11 6 6 1018.7 - 0.0
18/11:00pm 10.4 8.6 9.3 93 0.5 NW 9 11 5 6 1019.0 - 0.0
18/10:30pm 10.9 9.2 9.7 92 0.6 NW 9 11 5 6 1019.1 - 0.0
18/10:00pm 10.3 8.4 9.1 92 0.6 NNW 9 11 5 6 1019.1 - 0.0
18/09:30pm 10.9 8.7 9.2 89 0.8 NNW 11 13 6 7 1019.3 - 0.0
18/09:00pm 11.9 10.2 9.8 87 1.1 NW 9 11 5 6 1019.2 - 0.0
18/08:30pm 13.6 11.4 10.8 83 1.5 WSW 13 17 7 9 1019.2 - 0.0
18/08:00pm 13.9 12.3 10.3 79 1.9 W 9 15 5 8 1019.2 - 0.0
18/07:30pm 13.9 11.9 10.1 78 2.0 W 11 15 6 8 1019.5 - 0.0
18/07:00pm 14.3 12.3 10.3 77 2.1 WSW 11 17 6 9 1019.4 - 0.0
18/06:30pm 14.7 12.4 10.3 75 2.3 WSW 13 17 7 9 1019.3 - 0.0
18/06:00pm 15.2 12.8 10.2 72 2.6 WSW 13 19 7 10 1019.0 - 0.0
18/05:30pm 16.0 13.2 10.1 68 3.1 WSW 15 22 8 12 1018.9 - 0.0
18/05:00pm 17.2 14.1 10.3 64 3.7 WSW 17 28 9 15 1018.8 - 0.0
18/04:30pm 18.0 13.6 10.4 61 4.1 WSW 24 33 13 18 1018.8 - 0.0
18/04:00pm 18.2 13.7 10.1 59 4.3 WSW 24 32 13 17 1018.9 - 0.0
18/03:30pm 18.6 14.7 10.9 61 4.2 WSW 22 33 12 18 1019.0 - 0.0
18/03:00pm 18.8 14.2 9.8 56 4.8 WSW 24 35 13 19 1019.0 - 0.0
18/02:30pm 19.1 14.9 11.2 60 4.3 W 24 33 13 18 1019.2 - 0.0
18/02:00pm 17.9 14.4 11.0 64 3.7 WSW 20 30 11 16 1019.5 - 0.0
18/01:30pm 17.7 13.8 10.8 64 3.7 W 22 33 12 18 1019.7 - 0.0
18/01:00pm 18.0 14.6 11.1 64 3.7 W 20 26 11 14 1020.1 - 0.0
18/12:30pm 18.2 15.4 11.3 64 3.8 WNW 17 22 9 12 1020.6 - 0.0

Other formats

Comma delimited format used in spreadsheet applications
http://www.bom.gov.au/fwo/IDV60801/IDV60801.95907.axf

JavaScript Object Notation format (JSON) in row-major order
http://www.bom.gov.au/fwo/IDV60801/IDV60801.95907.json

Data quality

Most of these data are generated automatically and are frequently updated. Quality checks on data are not normally performed. It is possible for incorrect values to appear. Refer to information at About Latest Weather Observations and please check the disclaimer before using these data.